Time;durP1;ratioP1;P1;durP2;ratioP2;P2;SDS_P1;SDS_P2;PMS_P1;PMS_P2;Temp;Humidity;BMP_temperature;BMP_pressure;BME280_temperature;BME280_humidity;BME280_pressure;Samples;Min_cycle;Max_cycle;Signal;HPM_P1;HPM_P2
2022/10/01 00:01:48;;;;;;;16.20;12.40;;;;;;;9.86;100.00;100216.66;5134531;27;20026;-41
2022/10/01 00:04:13;;;;;;;17.17;12.13;;;;;;;9.85;100.00;100202.03;5134728;27;20035;-44
2022/10/01 00:06:38;;;;;;;13.75;11.73;;;;;;;9.86;100.00;100200.31;5133636;27;20098;-43
2022/10/01 00:09:04;;;;;;;15.50;10.93;;;;;;;9.87;100.00;100190.06;5134875;27;20019;-44
2022/10/01 00:11:29;;;;;;;16.58;11.82;;;;;;;9.89;100.00;100196.13;5134799;27;20031;-43
2022/10/01 00:13:56;;;;;;;17.45;12.32;;;;;;;9.88;100.00;100194.38;5133513;27;20023;-44
2022/10/01 00:16:24;;;;;;;14.20;10.88;;;;;;;9.87;100.00;100174.59;5134601;27;20023;-42
2022/10/01 00:18:50;;;;;;;16.65;12.07;;;;;;;9.88;100.00;100168.63;5134185;27;20054;-44
2022/10/01 00:21:21;;;;;;;16.85;11.80;;;;;;;9.85;100.00;100158.28;5133439;27;20082;-43
2022/10/01 00:23:53;;;;;;;14.32;11.80;;;;;;;9.83;100.00;100159.09;5134283;27;20055;-45
2022/10/01 00:26:21;;;;;;;15.98;11.88;;;;;;;9.83;100.00;100154.78;5134313;27;20463;-45
2022/10/01 00:28:52;;;;;;;15.73;12.65;;;;;;;9.82;100.00;100155.63;5133411;27;20024;-46
2022/10/01 00:31:18;;;;;;;15.25;11.95;;;;;;;9.81;100.00;100161.63;5134406;27;20054;-44
2022/10/01 00:33:43;;;;;;;17.00;11.93;;;;;;;9.83;100.00;100159.09;5134003;27;20505;-44
2022/10/01 00:36:10;;;;;;;16.45;11.48;;;;;;;9.86;100.00;100148.84;5133661;27;20023;-43
2022/10/01 00:38:37;;;;;;;15.02;11.45;;;;;;;9.88;100.00;100132.59;5133876;27;20031;-42
2022/10/01 00:41:02;;;;;;;14.35;11.27;;;;;;;9.94;100.00;100138.72;5134248;27;20043;-42
2022/10/01 00:43:32;;;;;;;15.70;11.35;;;;;;;9.94;100.00;100156.72;5133259;27;20062;-44
2022/10/01 00:46:07;;;;;;;18.05;11.98;;;;;;;9.94;100.00;100152.47;5133323;27;20054;-42
2022/10/01 00:48:43;;;;;;;16.52;12.23;;;;;;;9.91;100.00;100148.94;5133033;27;20034;-42
2022/10/01 00:51:09;;;;;;;13.98;11.48;;;;;;;9.91;100.00;100146.38;5134040;27;20023;-43
2022/10/01 00:53:36;;;;;;;14.13;11.13;;;;;;;9.91;100.00;100143.81;5133814;27;20027;-43
2022/10/01 00:56:02;;;;;;;17.57;11.63;;;;;;;9.92;100.00;100143.84;5133287;27;20020;-42
2022/10/01 00:58:28;;;;;;;16.58;11.40;;;;;;;9.94;100.00;100141.28;5133903;27;20275;-42
2022/10/01 01:00:55;;;;;;;14.55;11.65;;;;;;;9.91;100.00;100161.81;5133671;28;20115;-44
2022/10/01 01:03:21;;;;;;;13.67;11.30;;;;;;;9.88;100.00;100142.03;5132980;28;20365;-42
2022/10/01 01:05:49;;;;;;;17.52;12.35;;;;;;;9.86;100.00;100144.59;5133861;28;20470;-46
2022/10/01 01:08:15;;;;;;;19.73;13.25;;;;;;;9.83;100.00;100154.78;5133976;28;20023;-47
2022/10/01 01:10:51;;;;;;;14.68;12.23;;;;;;;9.82;100.00;100150.47;5132652;28;20023;-47
2022/10/01 01:13:49;;;;;;;16.10;11.75;;;;;;;9.82;100.00;100135.03;5133828;28;20042;-42
2022/10/01 01:16:32;;;;;;;12.98;11.43;;;;;;;9.78;100.00;100130.66;5133903;28;20094;-41
2022/10/01 01:19:12;;;;;;;17.73;11.60;;;;;;;9.76;100.00;100078.31;5133789;28;20050;-48
2022/10/01 01:21:43;;;;;;;16.13;11.82;;;;;;;9.73;100.00;100067.94;5133450;28;20032;-45
2022/10/01 01:24:20;;;;;;;13.93;11.48;;;;;;;9.72;100.00;100045.63;5133155;28;20019;-46
2022/10/01 01:26:53;;;;;;;;;;;;;;;9.79;100.00;100014.03;5134010;28;20031;-44
2022/10/01 01:29:51;;;;;;;18.23;12.20;;;;;;;9.73;100.00;99993.31;5133771;28;19911;-43
2022/10/01 01:32:24;;;;;;;13.50;10.70;;;;;;;9.68;100.00;100012.94;5123638;28;20046;-44
2022/10/01 01:34:54;;;;;;;13.00;10.10;;;;;;;9.68;100.00;99995.81;5133385;28;20059;-43
2022/10/01 01:37:23;;;;;;;14.32;9.80;;;;;;;9.68;100.00;100031.84;5133833;28;20064;-47
2022/10/01 01:39:52;;;;;;;14.10;9.40;;;;;;;9.68;100.00;100031.84;5132576;28;20075;-45
2022/10/01 01:42:35;;;;;;;10.23;8.60;;;;;;;9.69;100.00;100045.56;5133513;28;20047;-44
2022/10/01 01:45:04;;;;;;;14.20;9.20;;;;;;;9.69;100.00;100089.31;5133294;28;20062;-45
2022/10/01 01:47:33;;;;;;;13.77;9.48;;;;;;;9.66;100.00;100059.22;5133532;28;20015;-46
2022/10/01 01:50:06;;;;;;;14.07;8.98;;;;;;;9.67;100.00;100062.66;5133650;28;20034;-46
2022/10/01 01:52:32;;;;;;;11.38;8.73;;;;;;;9.68;100.00;100048.97;5132392;28;20030;-47
2022/10/01 01:54:57;;;;;;;10.73;8.18;;;;;;;9.70;100.00;100013.84;5133392;28;20027;-47
2022/10/01 01:57:22;;;;;;;10.63;8.70;;;;;;;9.69;100.00;100036.13;5134856;27;20454;-46
2022/10/01 01:59:48;;;;;;;9.60;8.55;;;;;;;9.68;100.00;100026.69;5136239;27;20467;-46
2022/10/01 02:02:22;;;;;;;9.88;7.63;;;;;;;9.68;100.00;100036.09;5137277;27;20027;-48
2022/10/01 02:04:59;;;;;;;10.85;8.35;;;;;;;9.67;100.00;100044.66;5136908;27;20106;-48
2022/10/01 02:07:44;;;;;;;9.60;7.78;;;;;;;9.67;100.00;100032.69;5136360;27;20038;-48
2022/10/01 02:10:21;;;;;;;10.00;8.38;;;;;;;9.66;100.00;100022.38;5137012;27;20367;-47
2022/10/01 02:13:05;;;;;;;11.98;8.10;;;;;;;9.64;100.00;100030.03;5136035;27;20070;-46
2022/10/01 02:15:42;;;;;;;10.57;7.82;;;;;;;9.62;100.00;100021.44;5136941;27;20035;-44
2022/10/01 02:18:27;;;;;;;8.75;7.50;;;;;;;9.61;100.00;100026.53;5136810;27;20027;-44
2022/10/01 02:20:55;;;;;;;9.77;7.35;;;;;;;9.61;100.00;100011.09;5135916;27;20020;-45
2022/10/01 02:23:26;;;;;;;7.93;6.38;;;;;;;9.61;100.00;99998.25;5136680;27;20463;-45
2022/10/01 02:25:58;;;;;;;7.43;5.90;;;;;;;9.64;100.00;99998.28;5136515;27;20432;-46
2022/10/01 02:28:24;;;;;;;8.00;6.53;;;;;;;9.63;100.00;99996.56;5135758;27;20027;-48
2022/10/01 02:30:55;;;;;;;7.97;6.15;;;;;;;9.64;100.00;99990.56;5136486;27;20446;-45
2022/10/01 02:33:27;;;;;;;7.18;5.95;;;;;;;9.64;100.00;99993.16;5136539;27;20027;-44
2022/10/01 02:35:55;;;;;;;8.20;6.10;;;;;;;9.63;100.00;99984.56;5135399;27;20024;-45
2022/10/01 02:38:23;;;;;;;7.35;5.60;;;;;;;9.65;100.00;99976.88;5136830;27;20035;-45
2022/10/01 02:40:57;;;;;;;7.03;6.05;;;;;;;9.63;100.00;99966.56;5136212;27;20043;-49
2022/10/01 02:43:31;;;;;;;8.10;5.72;;;;;;;9.68;100.00;99976.94;5136343;27;20046;-44
2022/10/01 02:46:02;;;;;;;6.30;5.28;;;;;;;9.67;100.00;99978.66;5136318;27;20478;-46
2022/10/01 02:48:27;;;;;;;6.75;4.97;;;;;;;9.68;100.00;99961.50;5135553;27;20023;-48
2022/10/01 02:51:00;;;;;;;6.30;4.97;;;;;;;9.69;100.00;99970.94;5135943;27;20022;-44
2022/10/01 02:53:48;;;;;;;7.15;4.35;;;;;;;9.72;100.00;99973.56;5136228;27;20026;-47
2022/10/01 02:57:21;;;;;;;;;;;;;;;9.74;100.00;99982.19;5135923;27;20031;-46
2022/10/01 02:58:59;;;;;;;6.07;4.25;;;;;;;9.76;100.00;99964.22;5135936;27;19911;-44
2022/10/01 03:01:24;;;;;;;5.00;4.13;;;;;;;9.76;100.00;99972.81;5135991;27;20034;-44
2022/10/01 03:03:49;;;;;;;7.75;4.20;;;;;;;9.76;100.00;99957.38;5134847;27;20030;-45
2022/10/01 03:06:14;;;;;;;5.43;4.30;;;;;;;9.79;100.00;99957.41;5136112;27;20526;-44
2022/10/01 03:08:40;;;;;;;5.03;4.10;;;;;;;9.81;100.00;99955.75;5134947;27;20035;-47
2022/10/01 03:11:07;;;;;;;5.30;3.90;;;;;;;9.83;100.00;99933.47;5135052;27;20019;-45
2022/10/01 03:13:33;;;;;;;6.30;4.30;;;;;;;9.84;100.00;99960.94;5135670;27;20367;-44
2022/10/01 03:15:58;;;;;;;5.75;4.47;;;;;;;9.86;100.00;99953.25;5135654;27;20466;-47
2022/10/01 03:18:23;;;;;;;5.82;3.83;;;;;;;9.87;100.00;99954.97;5134764;27;20035;-44
2022/10/01 03:20:49;;;;;;;6.18;3.90;;;;;;;9.88;100.00;99959.28;5135665;27;20374;-46
2022/10/01 03:23:14;;;;;;;5.45;4.10;;;;;;;9.88;100.00;99957.56;5134719;27;20076;-44
2022/10/01 03:25:39;;;;;;;5.82;3.58;;;;;;;9.89;100.00;99956.75;5135457;27;20021;-46
2022/10/01 03:28:07;;;;;;;6.72;4.15;;;;;;;9.89;100.00;99954.16;5135533;27;20035;-45
2022/10/01 03:30:33;;;;;;;5.30;3.60;;;;;;;9.93;100.00;99956.78;5134536;27;20027;-44
2022/10/01 03:32:58;;;;;;;6.03;3.88;;;;;;;9.93;100.00;99959.38;5135308;27;20031;-44
2022/10/01 03:35:23;;;;;;;4.47;3.40;;;;;;;9.95;100.00;99960.28;5135581;27;20084;-44
2022/10/01 03:37:49;;;;;;;6.40;3.65;;;;;;;9.97;100.00;99961.19;5134341;27;20023;-45
2022/10/01 03:40:14;;;;;;;4.53;3.13;;;;;;;9.98;100.00;99970.59;5135367;27;20546;-44
2022/10/01 03:42:39;;;;;;;4.00;2.97;;;;;;;9.99;100.00;99959.47;5134843;27;20026;-48
2022/10/01 03:45:05;;;;;;;5.55;2.95;;;;;;;10.01;100.00;99957.81;5134365;27;20019;-44
2022/10/01 03:47:30;;;;;;;4.85;2.90;;;;;;;10.02;100.00;99955.25;5134770;27;20019;-44
2022/10/01 03:49:55;;;;;;;4.97;2.85;;;;;;;10.05;100.00;99962.16;5135244;27;20016;-44
2022/10/01 03:52:21;;;;;;;4.15;2.65;;;;;;;10.06;100.00;99961.34;5134084;27;20023;-45
2022/10/01 03:54:46;;;;;;;4.03;2.60;;;;;;;10.10;100.00;99959.69;5134859;27;20027;-45
2022/10/01 03:57:11;;;;;;;3.80;2.50;;;;;;;10.14;100.00;99971.75;5134981;27;20454;-44
2022/10/01 03:59:37;;;;;;;3.95;2.40;;;;;;;10.14;100.00;99970.03;5133904;27;20588;-47
2022/10/01 04:02:02;;;;;;;2.85;2.30;;;;;;;10.19;100.00;99976.13;5134749;27;20023;-48
2022/10/01 04:04:27;;;;;;;3.22;2.20;;;;;;;10.22;100.00;99972.75;5134695;27;20031;-48
2022/10/01 04:06:53;;;;;;;4.30;2.28;;;;;;;10.23;100.00;99977.06;5133715;27;20110;-46
2022/10/01 04:09:18;;;;;;;5.15;2.00;;;;;;;10.26;100.00;99973.66;5134785;27;20470;-46
2022/10/01 04:11:43;;;;;;;3.30;2.10;;;;;;;10.27;100.00;99980.56;5134316;27;20034;-47
2022/10/01 04:14:09;;;;;;;3.08;1.92;;;;;;;10.29;100.00;99972.03;5134164;27;20019;-45
2022/10/01 04:16:34;;;;;;;4.20;2.00;;;;;;;10.34;100.00;99972.09;5134319;27;20462;-46
2022/10/01 04:19:00;;;;;;;3.00;2.03;;;;;;;10.35;100.00;99964.44;5134557;27;20103;-46
2022/10/01 04:21:25;;;;;;;2.70;1.90;;;;;;;10.40;100.00;99968.78;5132998;27;20023;-45
2022/10/01 04:23:51;;;;;;;4.18;2.00;;;;;;;10.44;100.00;99968.00;5134333;27;20029;-48
2022/10/01 04:26:17;;;;;;;3.17;1.90;;;;;;;10.46;100.00;99964.59;5134353;27;20478;-45
2022/10/01 04:28:45;;;;;;;2.80;1.70;;;;;;;10.50;100.00;99973.25;5133212;27;20028;-45
2022/10/01 04:31:25;;;;;;;3.58;1.70;;;;;;;10.51;100.00;99970.69;5134205;27;20474;-46
2022/10/01 04:33:56;;;;;;;2.63;1.60;;;;;;;10.54;100.00;99975.88;5133473;27;20038;-44
2022/10/01 04:36:23;;;;;;;2.60;1.90;;;;;;;10.56;100.00;99981.06;5134356;27;20027;-46
2022/10/01 04:38:53;;;;;;;2.63;1.67;;;;;;;10.57;100.00;99985.34;5134004;27;20033;-45
2022/10/01 04:41:19;;;;;;;3.30;1.75;;;;;;;10.59;100.00;99982.81;5133319;27;20080;-45
2022/10/01 04:43:44;;;;;;;2.92;1.85;;;;;;;10.60;100.00;99984.53;5133689;27;20039;-49
2022/10/01 04:46:09;;;;;;;3.67;1.80;;;;;;;10.63;100.00;99992.34;5134279;27;20476;-47
2022/10/01 04:48:35;;;;;;;4.63;1.92;;;;;;;10.65;100.00;99985.47;5133265;27;20030;-45
2022/10/01 04:51:00;;;;;;;3.03;2.10;;;;;;;10.67;100.00;99992.38;5134230;27;20019;-48
2022/10/01 04:53:25;;;;;;;4.53;2.22;;;;;;;10.69;100.00;100007.88;5134090;27;20394;-44
2022/10/01 04:55:51;;;;;;;3.63;2.08;;;;;;;10.70;100.00;100004.47;5133004;27;20039;-44
2022/10/01 04:58:17;;;;;;;4.30;2.35;;;;;;;10.72;100.00;100007.94;5134006;27;20072;-46
2022/10/01 05:00:43;;;;;;;3.50;2.45;;;;;;;10.73;100.00;100007.09;5133766;27;20033;-43
2022/10/01 05:03:08;;;;;;;3.88;2.63;;;;;;;10.73;100.00;100021.69;5133037;28;20109;-43
2022/10/01 05:05:33;;;;;;;4.40;2.90;;;;;;;10.76;100.00;100016.59;5133813;28;20497;-43
2022/10/01 05:07:59;;;;;;;5.55;3.25;;;;;;;10.77;100.00;100014.03;5134008;28;20030;-44
2022/10/01 05:10:25;;;;;;;4.45;2.75;;;;;;;10.79;100.00;100006.31;5133120;28;20100;-46
2022/10/01 05:12:50;;;;;;;5.05;3.38;;;;;;;10.81;100.00;100010.66;5133518;28;20114;-46
2022/10/01 05:15:16;;;;;;;5.80;3.60;;;;;;;10.82;100.00;100020.13;5133983;28;20027;-44
2022/10/01 05:17:41;;;;;;;6.13;3.58;;;;;;;10.85;100.00;100032.19;5132880;28;20064;-43
2022/10/01 05:20:14;;;;;;;5.13;3.60;;;;;;;10.89;100.00;100038.28;5133775;28;20015;-43
2022/10/01 05:22:40;;;;;;;6.28;3.92;;;;;;;10.87;100.00;100031.38;5132732;28;20051;-45
2022/10/01 05:25:05;;;;;;;6.57;4.20;;;;;;;10.91;100.00;100031.41;5133607;28;20062;-43
2022/10/01 05:27:35;;;;;;;5.22;3.95;;;;;;;10.91;100.00;100040.03;5133293;28;20079;-42
2022/10/01 05:30:00;;;;;;;6.90;5.18;;;;;;;10.94;100.00;100041.78;5133033;28;20439;-44
2022/10/01 05:32:26;;;;;;;7.55;4.90;;;;;;;10.97;100.00;100039.25;5134916;27;20051;-43
2022/10/01 05:34:51;;;;;;;8.20;5.15;;;;;;;10.98;100.00;100053.88;5137523;27;20076;-42
2022/10/01 05:37:18;;;;;;;7.25;5.45;;;;;;;10.99;100.00;100055.59;5136892;27;20042;-43
2022/10/01 05:39:43;;;;;;;8.20;5.70;;;;;;;10.99;100.00;100059.03;5137416;27;20019;-43
2022/10/01 05:42:08;;;;;;;9.70;7.00;;;;;;;11.01;100.00;100059.06;5137530;27;20113;-44
2022/10/01 05:44:36;;;;;;;8.70;6.38;;;;;;;11.05;100.00;100050.53;5136280;27;20051;-43
2022/10/01 05:47:05;;;;;;;;;;;;;;;11.09;100.00;100060.06;5138047;27;20019;-44
2022/10/01 05:49:30;;;;;;;13.25;10.85;;;;;;;11.09;100.00;100062.63;5137219;27;19985;-44
2022/10/01 05:51:56;;;;;;;11.02;8.32;;;;;;;11.14;100.00;100065.28;5136385;27;20438;-47
2022/10/01 05:54:23;;;;;;;22.80;19.77;;;;;;;11.15;100.00;100072.16;5137313;27;20042;-47
2022/10/01 05:56:49;;;;;;;12.70;9.13;;;;;;;11.15;100.00;100077.31;5137049;27;20026;-46
2022/10/01 05:59:14;;;;;;;12.88;8.25;;;;;;;11.17;100.00;100081.66;5136627;27;20051;-47
2022/10/01 06:01:40;;;;;;;11.50;8.60;;;;;;;11.17;100.00;100076.50;5136953;27;20105;-45
2022/10/01 06:04:05;;;;;;;10.07;8.90;;;;;;;11.19;100.00;100072.25;5137073;27;20030;-46
2022/10/01 06:06:30;;;;;;;14.18;8.77;;;;;;;11.20;100.00;100076.53;5136068;27;20020;-43
2022/10/01 06:08:57;;;;;;;15.55;8.95;;;;;;;11.21;100.00;100082.59;5137007;27;20031;-47
2022/10/01 06:11:23;;;;;;;10.87;9.70;;;;;;;11.23;100.00;100091.19;5136922;27;20087;-47
2022/10/01 06:13:49;;;;;;;11.95;9.48;;;;;;;11.26;100.00;100085.22;5136143;27;20031;-48
2022/10/01 06:16:15;;;;;;;13.10;9.80;;;;;;;11.27;100.00;100094.69;5136845;27;20521;-48
2022/10/01 06:18:41;;;;;;;14.93;11.20;;;;;;;11.29;100.00;100090.44;5136651;27;20060;-46
2022/10/01 06:21:07;;;;;;;10.50;9.27;;;;;;;11.30;100.00;100098.19;5136127;27;20022;-46
2022/10/01 06:23:32;;;;;;;13.88;10.07;;;;;;;11.30;100.00;100098.19;5136465;27;20123;-47
2022/10/01 06:26:00;;;;;;;19.42;10.85;;;;;;;11.34;100.00;100105.13;5135860;27;20518;-47
2022/10/01 06:28:26;;;;;;;14.18;10.57;;;;;;;11.36;100.00;100102.56;5136859;27;20110;-47
2022/10/01 06:30:52;;;;;;;13.73;11.68;;;;;;;11.36;100.00;100111.19;5136264;27;20068;-46
2022/10/01 06:33:17;;;;;;;15.35;11.18;;;;;;;11.37;100.00;100109.47;5135886;27;20035;-48
2022/10/01 06:35:48;;;;;;;16.45;12.50;;;;;;;11.40;100.00;100111.22;5136350;27;20104;-48
2022/10/01 06:38:14;;;;;;;15.98;12.20;;;;;;;11.41;100.00;100108.66;5136999;27;20062;-44
2022/10/01 06:40:40;;;;;;;16.55;13.40;;;;;;;11.43;100.00;100114.72;5135349;27;20023;-49
2022/10/01 06:43:07;;;;;;;19.40;14.85;;;;;;;11.47;100.00;100113.91;5135816;27;20152;-46
2022/10/01 06:45:37;;;;;;;18.83;14.55;;;;;;;11.53;100.00;100116.56;5135355;27;20450;-46
2022/10/01 06:48:03;;;;;;;26.25;17.05;;;;;;;11.58;100.00;100119.22;5135658;27;20043;-45
2022/10/01 06:50:33;;;;;;;23.17;18.05;;;;;;;11.66;100.00;100116.75;5136361;27;20451;-46
2022/10/01 06:53:00;;;;;;;22.20;18.20;;;;;;;11.71;100.00;100122.84;5136058;27;20061;-47
2022/10/01 06:55:29;;;;;;;25.17;22.10;;;;;;;11.77;100.00;100117.75;5135515;27;20020;-46
2022/10/01 06:57:59;;;;;;;21.90;18.88;;;;;;;11.79;100.00;100128.09;5136169;27;20023;-47
2022/10/01 07:00:27;;;;;;;20.98;17.75;;;;;;;11.83;100.00;100130.72;5136067;27;20062;-47
2022/10/01 07:02:54;;;;;;;19.10;16.50;;;;;;;11.93;100.00;100130.84;5135037;27;20023;-47
2022/10/01 07:05:20;;;;;;;18.77;15.52;;;;;;;11.96;100.00;100130.94;5135996;27;20058;-47
2022/10/01 07:07:47;;;;;;;15.88;14.25;;;;;;;11.99;100.00;100130.97;5135953;27;20051;-46
2022/10/01 07:10:14;;;;;;;17.55;14.38;;;;;;;11.99;100.00;100141.28;5135265;27;20019;-47
2022/10/01 07:12:39;;;;;;;17.13;14.00;;;;;;;11.99;100.00;100143.88;5135658;27;20038;-47
2022/10/01 07:15:06;;;;;;;17.23;13.13;;;;;;;12.00;100.00;100149.03;5135945;27;20019;-46
2022/10/01 07:17:33;;;;;;;15.98;12.82;;;;;;;12.08;100.00;100148.28;5134765;27;20434;-43
2022/10/01 07:19:59;;;;;;;18.65;13.07;;;;;;;12.21;100.00;100146.72;5135692;27;20513;-45
2022/10/01 07:22:24;;;;;;;19.17;13.68;;;;;;;12.28;100.00;100138.19;5134824;27;20072;-47
2022/10/01 07:24:51;;;;;;;17.52;12.65;;;;;;;12.37;100.00;100143.47;5135470;27;20023;-46
2022/10/01 07:27:17;;;;;;;14.60;12.60;;;;;;;12.48;100.00;100156.50;5135506;27;20425;-47
2022/10/01 07:29:43;;;;;;;15.90;12.43;;;;;;;12.54;100.00;100171.19;5134508;27;20038;-46
2022/10/01 07:32:09;;;;;;;16.63;12.20;;;;;;;12.68;100.00;100169.63;5135356;27;20027;-47
2022/10/01 07:34:36;;;;;;;17.95;12.30;;;;;;;12.80;100.00;100172.31;5135079;27;20030;-48
2022/10/01 07:37:02;;;;;;;18.50;12.13;;;;;;;12.81;100.00;100158.53;5134514;27;20432;-45
2022/10/01 07:39:27;;;;;;;17.02;11.95;;;;;;;12.81;100.00;100162.88;5135286;27;20526;-48
2022/10/01 07:41:53;;;;;;;16.90;12.10;;;;;;;12.76;100.00;100178.31;5134918;27;20031;-47
2022/10/01 07:44:18;;;;;;;20.90;12.02;;;;;;;12.67;100.00;100179.09;5134299;27;20160;-46
2022/10/01 07:46:45;;;;;;;20.63;13.20;;;;;;;12.58;100.00;100173.81;5134953;27;20069;-47
2022/10/01 07:49:10;;;;;;;18.90;14.70;;;;;;;12.50;100.00;100181.50;5134944;27;20018;-44
2022/10/01 07:51:36;;;;;;;22.98;15.55;;;;;;;12.45;100.00;100198.69;5134227;27;20102;-46
2022/10/01 07:54:02;;;;;;;22.85;16.30;;;;;;;12.39;100.00;100205.50;5135222;27;20067;-46
2022/10/01 07:56:27;;;;;;;17.23;9.50;;;;;;;12.25;100.00;100201.03;5134876;27;20481;-45
2022/10/01 07:58:54;;;;;;;12.05;7.18;;;;;;;12.13;100.00;100206.03;5133916;27;20110;-46
2022/10/01 08:01:19;;;;;;;13.10;7.93;;;;;;;12.05;100.00;100202.50;5134844;27;20069;-45
2022/10/01 08:03:50;;;;;;;10.13;5.85;;;;;;;11.99;100.00;100204.16;5134504;27;20054;-42
2022/10/01 08:06:17;;;;;;;9.73;5.00;;;;;;;11.97;100.00;100199.81;5134206;27;20033;-46
2022/10/01 08:08:42;;;;;;;8.55;4.90;;;;;;;11.93;100.00;100208.31;5134568;27;20015;-43
2022/10/01 08:11:09;;;;;;;12.48;6.28;;;;;;;11.97;100.00;100215.31;5134856;27;20019;-46
2022/10/01 08:13:35;;;;;;;14.88;8.85;;;;;;;12.05;100.00;100213.69;5133575;27;20033;-45
2022/10/01 08:16:03;;;;;;;18.65;12.18;;;;;;;12.13;100.00;100226.69;5134489;27;20371;-46
2022/10/01 08:18:28;;;;;;;21.00;15.40;;;;;;;12.34;100.00;100228.69;5133785;27;20023;-43
2022/10/01 08:20:53;;;;;;;28.77;22.00;;;;;;;12.58;100.00;100240.19;5134342;27;20027;-47
2022/10/01 08:23:20;;;;;;;30.63;23.50;;;;;;;12.78;100.00;100241.28;5134603;27;20032;-47
2022/10/01 08:25:46;;;;;;;33.45;24.50;;;;;;;12.87;100.00;100244.78;5133570;27;20023;-46
2022/10/01 08:28:12;;;;;;;30.05;23.40;;;;;;;12.89;100.00;100246.53;5134421;27;20019;-47
2022/10/01 08:30:38;;;;;;;28.90;22.85;;;;;;;12.88;100.00;100252.56;5134200;27;20023;-46
2022/10/01 08:33:04;;;;;;;31.05;22.95;;;;;;;12.92;100.00;100256.06;5133381;27;20026;-44
2022/10/01 08:35:30;;;;;;;26.77;22.33;;;;;;;12.95;100.00;100250.91;5134190;27;20027;-46
2022/10/01 08:38:00;;;;;;;34.17;22.80;;;;;;;13.25;100.00;100254.66;5134441;27;20023;-46
2022/10/01 08:40:26;;;;;;;25.33;19.75;;;;;;;13.29;100.00;100259.88;5133510;27;20030;-48
2022/10/01 08:43:05;;;;;;;24.23;18.58;;;;;;;13.40;100.00;100265.19;5133845;27;20047;-49
2022/10/01 08:46:01;;;;;;;20.30;16.48;;;;;;;13.37;100.00;100259.97;5133913;27;20087;-45
2022/10/01 08:48:59;;;;;;;21.02;17.30;;;;;;;13.29;100.00;100264.19;5132010;27;20031;-47
2022/10/01 08:51:58;;;;;;;20.95;16.75;;;;;;;13.20;100.00;100258.94;5134042;27;20023;-48
2022/10/01 08:54:31;;;;;;;21.75;16.95;;;;;;;13.26;100.00;100261.56;5133327;27;20101;-48
2022/10/01 08:57:00;;;;;;;27.05;16.83;;;;;;;13.30;100.00;100271.09;5134172;27;20072;-47
2022/10/01 08:59:37;;;;;;;21.77;17.13;;;;;;;13.58;100.00;100258.41;5133917;27;20462;-47
2022/10/01 09:02:17;;;;;;;27.20;18.77;;;;;;;13.76;100.00;100268.94;5133134;27;20072;-49
2022/10/01 09:04:42;;;;;;;16.83;13.55;;;;;;;13.97;100.00;100268.19;5133826;28;20023;-46
2022/10/01 09:07:38;;;;;;;13.82;11.45;;;;;;;14.19;100.00;100264.84;5133406;27;20034;-48
2022/10/01 09:10:16;;;;;;;20.88;11.07;;;;;;;14.51;100.00;100269.31;5132990;28;20114;-50
2022/10/01 09:12:47;;;;;;;15.05;9.82;;;;;;;14.71;100.00;100280.66;5133398;28;20027;-49
2022/10/01 09:15:16;;;;;;;15.05;9.15;;;;;;;14.92;100.00;100281.59;5133185;28;20026;-48
2022/10/01 09:17:59;;;;;;;15.85;8.93;;;;;;;15.19;100.00;100287.72;5133688;28;20056;-47
2022/10/01 09:20:37;;;;;;;11.68;6.20;;;;;;;15.25;100.00;100292.94;5133978;28;20019;-47
2022/10/01 09:23:30;;;;;;;14.70;6.85;;;;;;;15.58;100.00;100286.00;5132901;28;20108;-46
2022/10/01 09:25:58;;;;;;;15.43;5.80;;;;;;;15.76;100.00;100304.22;5133638;28;20023;-48
2022/10/01 09:28:32;;;;;;;14.35;5.20;;;;;;;15.77;100.00;100300.72;5133736;28;20144;-50
2022/10/01 09:31:16;;;;;;;18.27;5.85;;;;;;;16.04;100.00;100304.19;5132831;28;20027;-48
2022/10/01 09:33:49;;;;;;;15.25;5.38;;;;;;;16.11;98.80;100300.72;5133346;28;20027;-48
2022/10/01 09:36:37;;;;;;;17.50;5.45;;;;;;;16.23;98.59;100317.13;5132975;28;20046;-45
2022/10/01 09:39:16;;;;;;;15.95;4.80;;;;;;;16.17;95.81;100310.22;5133570;28;20023;-50
2022/10/01 09:41:44;;;;;;;17.90;5.30;;;;;;;16.25;97.05;100311.06;5133282;28;20034;-49
2022/10/01 09:44:16;;;;;;;17.73;4.43;;;;;;;16.59;95.21;100302.28;5132537;28;20393;-46
2022/10/01 09:46:42;;;;;;;16.50;4.00;;;;;;;17.07;94.37;100305.56;5133320;28;20029;-43
2022/10/01 09:49:18;;;;;;;17.95;4.28;;;;;;;17.46;91.18;100299.25;5133620;28;20023;-47
2022/10/01 09:51:48;;;;;;;15.43;3.67;;;;;;;17.76;87.44;100301.56;5132438;28;20026;-43
2022/10/01 09:54:19;;;;;;;16.67;3.78;;;;;;;18.02;85.29;100303.13;5133276;28;20443;-46
2022/10/01 09:56:57;;;;;;;17.55;3.17;;;;;;;18.50;82.70;100317.41;5133076;28;20463;-47
2022/10/01 09:59:30;;;;;;;18.60;3.45;;;;;;;18.41;84.06;100315.75;5133539;28;20050;-46
2022/10/01 10:01:58;;;;;;;19.25;3.08;;;;;;;18.32;79.92;100310.63;5133615;28;20030;-45
2022/10/01 10:04:23;;;;;;;16.40;3.33;;;;;;;18.05;79.56;100313.53;5132600;28;20023;-48
2022/10/01 10:06:50;;;;;;;16.42;3.22;;;;;;;18.18;82.75;100321.22;5132936;28;20027;-46
2022/10/01 10:09:19;;;;;;;17.27;3.38;;;;;;;17.72;81.54;100325.94;5133234;28;20504;-45
2022/10/01 10:11:44;;;;;;;19.48;3.88;;;;;;;17.15;83.22;100322.91;5132208;28;20110;-47
2022/10/01 10:14:16;;;;;;;12.77;3.15;;;;;;;16.63;86.80;100341.31;5133312;28;20132;-47
2022/10/01 10:16:46;;;;;;;16.98;3.15;;;;;;;16.09;90.17;100338.00;5132926;28;20477;-46
2022/10/01 10:19:31;;;;;;;22.27;3.80;;;;;;;15.64;91.20;100353.56;5133328;27;20030;-45
2022/10/01 10:22:08;;;;;;;16.92;3.08;;;;;;;15.08;90.70;100356.03;5137075;27;20027;-48
2022/10/01 10:24:34;;;;;;;18.00;3.38;;;;;;;14.67;91.77;100358.44;5136682;27;20038;-45
2022/10/01 10:27:02;;;;;;;15.40;3.22;;;;;;;14.35;91.32;100367.75;5136053;27;20088;-44
2022/10/01 10:29:31;;;;;;;21.92;3.45;;;;;;;14.20;94.07;100362.47;5136633;27;20114;-47
2022/10/01 10:31:58;;;;;;;17.23;3.20;;;;;;;14.04;93.43;100372.72;5136556;27;20114;-44
2022/10/01 10:34:35;;;;;;;16.17;2.70;;;;;;;13.89;95.69;100377.78;5136121;27;20019;-47
2022/10/01 10:37:04;;;;;;;17.83;3.40;;;;;;;14.63;95.02;100379.16;5136752;27;20058;-45
2022/10/01 10:39:34;;;;;;;18.75;3.65;;;;;;;15.48;93.69;100392.50;5135690;27;20623;-46
2022/10/01 10:42:01;;;;;;;17.27;3.05;;;;;;;16.48;88.80;100397.72;5136431;27;20023;-46
2022/10/01 10:44:33;;;;;;;16.88;3.50;;;;;;;17.42;80.31;100395.66;5136223;27;20071;-47
2022/10/01 10:47:01;;;;;;;14.90;2.97;;;;;;;18.18;79.42;100397.72;5135730;27;20033;-44
2022/10/01 10:49:29;;;;;;;19.45;3.90;;;;;;;17.93;73.89;100395.34;5136474;27;20042;-48
2022/10/01 10:51:58;;;;;;;18.10;3.45;;;;;;;17.17;76.90;100402.75;5136025;27;20539;-46
2022/10/01 10:54:26;;;;;;;21.05;3.63;;;;;;;17.40;76.94;100413.03;5135511;27;20035;-46
2022/10/01 10:57:01;;;;;;;16.20;2.78;;;;;;;18.04;75.64;100410.88;5135932;27;20024;-44
2022/10/01 10:59:29;;;;;;;15.63;2.65;;;;;;;18.80;70.41;100411.88;5136369;27;20094;-47
2022/10/01 11:01:55;;;;;;;19.85;3.15;;;;;;;19.81;68.92;100420.16;5135160;27;20023;-46
2022/10/01 11:04:28;;;;;;;18.92;3.00;;;;;;;19.72;66.63;100421.16;5136116;27;20472;-47
2022/10/01 11:06:55;;;;;;;16.08;3.20;;;;;;;19.71;65.19;100419.41;5135800;27;20031;-47
2022/10/01 11:09:25;;;;;;;17.55;3.42;;;;;;;19.81;62.52;100425.38;5135072;27;20076;-45
2022/10/01 11:12:04;;;;;;;17.95;3.63;;;;;;;19.82;63.69;100436.72;5135735;27;20046;-48
2022/10/01 11:14:35;;;;;;;15.98;3.10;;;;;;;20.14;62.90;100448.44;5135139;27;20027;-48
2022/10/01 11:17:21;;;;;;;18.60;3.50;;;;;;;19.60;64.74;100421.34;5135887;27;20022;-45
2022/10/01 11:20:26;;;;;;;21.53;3.33;;;;;;;18.90;66.35;100444.88;5135321;27;20027;-48
2022/10/01 11:23:28;;;;;;;19.50;3.15;;;;;;;18.18;67.01;100443.78;5134818;27;20031;-46
2022/10/01 11:26:10;;;;;;;16.95;3.03;;;;;;;17.95;69.46;100457.91;5135364;27;20107;-46